createdAt,value
2018-07-31T00:00:19.105Z,8.77
2018-07-31T00:02:21.385Z,8.77
2018-07-31T00:04:23.526Z,8.73
2018-07-31T00:06:25.629Z,9.23
2018-07-31T00:08:27.821Z,9.30
2018-07-31T00:10:29.966Z,8.83
2018-07-31T00:12:32.090Z,8.70
2018-07-31T00:14:34.206Z,8.57
2018-07-31T00:16:36.587Z,9.67
2018-07-31T00:18:38.898Z,9.03
2018-07-31T00:20:41.032Z,8.27
2018-07-31T00:22:43.574Z,7.83
2018-07-31T00:24:45.714Z,9.60
2018-07-31T00:26:47.869Z,8.57
2018-07-31T00:28:50.022Z,9.00
2018-07-31T00:30:52.135Z,7.97
2018-07-31T00:32:54.252Z,9.30
2018-07-31T00:34:56.382Z,7.87
2018-07-31T00:36:58.540Z,8.20
2018-07-31T00:39:00.704Z,8.60
2018-07-31T00:41:02.885Z,8.00
2018-07-31T00:43:05.051Z,8.80
2018-07-31T00:45:07.222Z,9.63
2018-07-31T00:47:10.005Z,8.43
2018-07-31T00:49:12.144Z,8.37
2018-07-31T00:51:14.225Z,8.60
2018-07-31T00:53:16.349Z,9.37
2018-07-31T00:55:18.461Z,8.60
2018-07-31T00:57:20.593Z,8.57
2018-07-31T00:59:22.702Z,8.80
2018-07-31T01:01:24.827Z,8.47
2018-07-31T01:03:26.958Z,9.00
2018-07-31T01:05:29.087Z,8.00
2018-07-31T01:07:31.220Z,8.90
2018-07-31T01:09:33.366Z,8.90
2018-07-31T01:11:35.492Z,8.83
2018-07-31T01:13:37.627Z,9.27
2018-07-31T01:15:39.800Z,8.23
2018-07-31T01:17:41.934Z,8.70
2018-07-31T01:19:44.078Z,8.27
2018-07-31T01:21:46.211Z,8.23
2018-07-31T01:23:48.326Z,8.30
2018-07-31T01:25:50.525Z,8.10
2018-07-31T01:27:52.905Z,8.20
2018-07-31T01:29:55.038Z,7.90
2018-07-31T01:31:57.182Z,8.03
2018-07-31T01:33:59.327Z,8.00
2018-07-31T01:36:01.473Z,8.87
2018-07-31T01:38:03.605Z,8.80
2018-07-31T01:40:05.859Z,7.70
2018-07-31T01:42:08.070Z,8.00
2018-07-31T01:44:10.165Z,8.43
2018-07-31T01:46:12.330Z,7.93
2018-07-31T01:48:14.450Z,8.20
2018-07-31T01:50:16.869Z,7.80
2018-07-31T01:52:18.990Z,7.80
2018-07-31T01:54:21.102Z,8.27
2018-07-31T01:56:23.283Z,7.27
2018-07-31T01:58:25.406Z,8.33
2018-07-31T02:00:27.523Z,8.20
2018-07-31T02:02:29.639Z,7.10
2018-07-31T02:04:31.781Z,7.80
2018-07-31T02:06:33.946Z,7.80
2018-07-31T02:08:36.070Z,7.43
2018-07-31T02:10:38.723Z,7.80
2018-07-31T02:12:40.852Z,8.07
2018-07-31T02:14:42.972Z,7.23
2018-07-31T02:16:45.102Z,7.73
2018-07-31T02:18:47.329Z,7.30
2018-07-31T02:20:49.449Z,7.83
2018-07-31T02:22:51.574Z,7.90
2018-07-31T02:24:53.701Z,7.73
2018-07-31T02:26:55.820Z,7.57
2018-07-31T02:28:57.952Z,8.17
2018-07-31T02:31:00.075Z,7.27
2018-07-31T02:33:02.232Z,8.00
2018-07-31T02:35:04.672Z,7.43
2018-07-31T02:37:06.850Z,7.27
2018-07-31T02:39:08.967Z,7.60
2018-07-31T02:41:11.159Z,7.43
2018-07-31T02:43:13.280Z,8.00
2018-07-31T02:45:15.422Z,7.97
2018-07-31T02:47:17.532Z,7.10
2018-07-31T02:49:19.626Z,7.90
2018-07-31T02:51:21.904Z,7.80
2018-07-31T02:53:24.041Z,8.03
2018-07-31T02:55:26.154Z,7.63
2018-07-31T02:57:29.319Z,7.97
2018-07-31T02:59:31.450Z,6.80
2018-07-31T03:01:33.617Z,7.73
2018-07-31T03:03:35.812Z,7.10
2018-07-31T03:05:37.991Z,7.40
2018-07-31T03:07:40.410Z,7.33
2018-07-31T03:09:42.535Z,7.33
2018-07-31T03:11:44.685Z,7.00
2018-07-31T03:13:46.795Z,7.53
2018-07-31T03:15:48.924Z,7.50
2018-07-31T03:17:51.055Z,7.30
2018-07-31T03:19:53.181Z,8.10
2018-07-31T03:21:55.450Z,7.40
2018-07-31T03:23:57.580Z,7.43
2018-07-31T03:25:59.986Z,7.20
2018-07-31T03:28:02.164Z,7.20
2018-07-31T03:30:04.605Z,8.57
2018-07-31T03:32:06.722Z,7.20
2018-07-31T03:34:08.853Z,7.73
2018-07-31T03:36:11.002Z,7.20
2018-07-31T03:38:13.116Z,7.40
2018-07-31T03:40:15.209Z,7.50
2018-07-31T03:42:17.347Z,7.50
2018-07-31T03:44:19.429Z,8.23
2018-07-31T03:46:21.562Z,7.67
2018-07-31T03:48:23.709Z,7.27
2018-07-31T03:50:25.906Z,7.30
2018-07-31T03:52:28.031Z,8.33
2018-07-31T03:54:30.135Z,7.13
2018-07-31T03:56:32.265Z,6.97
2018-07-31T03:58:34.416Z,7.33
2018-07-31T04:02:45.565Z,7.50
2018-07-31T04:04:47.710Z,7.93
2018-07-31T04:06:49.825Z,7.40
2018-07-31T04:08:52.239Z,7.40
2018-07-31T04:10:54.390Z,8.10
2018-07-31T04:12:56.520Z,7.07
2018-07-31T04:14:58.670Z,6.90
2018-07-31T04:17:00.842Z,8.03
2018-07-31T04:19:02.901Z,8.00
2018-07-31T04:21:04.993Z,7.77
2018-07-31T04:23:07.282Z,7.70
2018-07-31T04:25:09.441Z,7.80
2018-07-31T04:27:11.558Z,7.10
2018-07-31T04:29:13.721Z,7.67
2018-07-31T04:31:15.873Z,7.60
2018-07-31T04:33:18.057Z,7.27
2018-07-31T04:37:29.433Z,7.03
2018-07-31T04:39:31.566Z,7.50
2018-07-31T04:41:33.701Z,7.80
2018-07-31T04:43:35.867Z,6.90
2018-07-31T04:45:38.096Z,7.50
2018-07-31T04:47:40.222Z,7.50
2018-07-31T04:49:42.622Z,7.80
2018-07-31T04:51:44.752Z,7.57
2018-07-31T04:53:46.875Z,7.30
2018-07-31T04:55:49.045Z,7.60
2018-07-31T04:57:51.173Z,8.17
2018-07-31T04:59:53.289Z,7.50
2018-07-31T05:01:55.470Z,7.53
2018-07-31T05:03:57.613Z,7.50
2018-07-31T05:05:59.748Z,7.90
2018-07-31T05:08:01.923Z,7.57
2018-07-31T05:10:05.346Z,7.33
2018-07-31T05:12:07.493Z,7.53
2018-07-31T05:14:09.625Z,7.70
2018-07-31T05:16:15.542Z,7.43
2018-07-31T05:18:17.713Z,8.17
2018-07-31T05:20:19.882Z,7.77
2018-07-31T05:22:21.996Z,8.00
2018-07-31T05:24:24.166Z,7.80
2018-07-31T05:26:26.318Z,8.73
2018-07-31T05:28:28.466Z,8.63
2018-07-31T05:30:30.629Z,8.40
2018-07-31T05:32:32.838Z,8.60
2018-07-31T05:34:34.921Z,7.63
2018-07-31T05:36:37.093Z,7.10
2018-07-31T05:38:39.254Z,7.20
2018-07-31T05:40:41.748Z,7.80
2018-07-31T05:42:43.898Z,7.77
2018-07-31T05:44:46.061Z,7.13
2018-07-31T05:46:48.189Z,7.23
2018-07-31T05:48:50.603Z,7.30
2018-07-31T05:50:52.733Z,7.65
2018-07-31T05:52:56.306Z,8.07
2018-07-31T05:54:58.557Z,6.83
2018-07-31T05:57:00.678Z,7.70
2018-07-31T05:59:02.837Z,7.70
2018-07-31T06:01:05.126Z,8.13
2018-07-31T06:03:07.248Z,7.93
2018-07-31T06:05:09.482Z,7.57
2018-07-31T06:07:11.616Z,7.97
2018-07-31T06:09:13.733Z,8.20
2018-07-31T06:11:15.865Z,7.63
2018-07-31T06:13:17.981Z,8.57
2018-07-31T06:15:20.297Z,8.10
2018-07-31T06:17:22.675Z,7.90
2018-07-31T06:19:24.801Z,7.53
2018-07-31T06:21:26.998Z,7.50
2018-07-31T06:23:29.156Z,7.87
2018-07-31T06:25:31.477Z,7.73
2018-07-31T06:27:33.648Z,7.73
2018-07-31T06:29:36.182Z,8.80
2018-07-31T06:31:38.502Z,8.20
2018-07-31T06:33:40.685Z,8.67
2018-07-31T06:35:42.862Z,7.90
2018-07-31T06:37:45.026Z,8.10
2018-07-31T06:39:47.187Z,8.10
2018-07-31T06:41:49.408Z,7.73
2018-07-31T06:43:51.646Z,8.53
2018-07-31T06:45:53.833Z,8.80
2018-07-31T06:47:57.060Z,7.90
2018-07-31T06:49:59.252Z,8.43
2018-07-31T06:52:01.690Z,8.00
2018-07-31T06:54:03.851Z,8.40
2018-07-31T06:56:06.222Z,8.70
2018-07-31T06:58:09.305Z,8.73
2018-07-31T07:00:11.475Z,8.60
2018-07-31T07:02:13.795Z,8.40
2018-07-31T07:04:15.928Z,8.57
2018-07-31T07:06:18.098Z,8.97
2018-07-31T07:08:20.581Z,8.30
2018-07-31T07:10:22.783Z,9.03
2018-07-31T07:12:24.921Z,8.97
2018-07-31T07:14:27.264Z,8.73
2018-07-31T07:16:29.401Z,8.60
2018-07-31T07:18:31.560Z,7.80
2018-07-31T07:20:33.746Z,8.53
2018-07-31T07:22:35.904Z,8.70
2018-07-31T07:24:38.057Z,8.53
2018-07-31T07:26:40.353Z,8.83
2018-07-31T07:28:42.473Z,8.77
2018-07-31T07:30:44.594Z,8.43
2018-07-31T07:32:47.173Z,9.63
2018-07-31T07:34:49.324Z,8.87
2018-07-31T07:36:51.465Z,8.00
2018-07-31T07:38:53.761Z,8.50
2018-07-31T07:40:55.948Z,9.20
2018-07-31T07:42:58.134Z,8.93
2018-07-31T07:45:00.300Z,9.17
2018-07-31T07:47:02.517Z,9.03
2018-07-31T07:49:04.726Z,8.40
2018-07-31T07:51:07.182Z,9.70
2018-07-31T07:53:09.354Z,8.60
2018-07-31T07:55:18.254Z,8.20
2018-07-31T07:57:20.454Z,9.37
2018-07-31T07:59:22.603Z,9.23
2018-07-31T08:01:24.811Z,10.03
2018-07-31T08:03:26.989Z,9.93
2018-07-31T08:05:29.164Z,9.87
2018-07-31T08:07:31.318Z,8.63
2018-07-31T08:09:33.524Z,10.00
2018-07-31T08:11:35.727Z,8.90
2018-07-31T08:13:37.917Z,9.63
2018-07-31T08:15:40.161Z,9.57
2018-07-31T08:17:42.651Z,8.77
2018-07-31T08:19:44.813Z,9.80
2018-07-31T08:21:46.978Z,10.27
2018-07-31T08:23:49.175Z,9.23
2018-07-31T08:25:51.318Z,8.70
2018-07-31T08:27:53.489Z,9.17
2018-07-31T08:29:55.673Z,9.83
2018-07-31T08:31:57.833Z,12.10
2018-07-31T08:33:59.981Z,11.57
2018-07-31T08:36:02.154Z,13.60
2018-07-31T08:38:04.454Z,10.23
2018-07-31T08:40:06.658Z,10.50
2018-07-31T08:42:08.821Z,10.30
2018-07-31T08:44:10.983Z,9.57
2018-07-31T08:46:13.155Z,9.53
2018-07-31T08:48:15.350Z,10.10
2018-07-31T08:50:17.526Z,9.10
2018-07-31T08:52:19.684Z,8.77
2018-07-31T08:54:21.896Z,8.90
2018-07-31T08:56:24.231Z,10.23
2018-07-31T08:58:26.391Z,9.63
2018-07-31T09:00:28.534Z,9.17
2018-07-31T09:02:30.765Z,9.70
2018-07-31T09:04:32.897Z,9.23
2018-07-31T09:06:35.048Z,8.70
2018-07-31T09:08:37.210Z,9.30
2018-07-31T09:10:39.336Z,9.33
2018-07-31T09:12:41.524Z,9.37
2018-07-31T09:14:43.698Z,8.90
2018-07-31T09:16:45.923Z,9.30
2018-07-31T09:18:48.070Z,8.70
2018-07-31T09:20:50.231Z,8.93
2018-07-31T09:22:52.479Z,8.50
2018-07-31T09:24:54.834Z,9.40
2018-07-31T09:26:56.894Z,9.00
2018-07-31T09:28:59.077Z,9.10
2018-07-31T09:31:07.107Z,8.90
2018-07-31T09:33:09.326Z,10.20
2018-07-31T09:35:11.778Z,9.20
2018-07-31T09:37:14.693Z,9.40
2018-07-31T09:39:16.807Z,10.07
2018-07-31T09:41:18.956Z,9.00
2018-07-31T09:43:21.166Z,8.67
2018-07-31T09:45:23.417Z,9.73
2018-07-31T09:47:25.602Z,8.53
2018-07-31T09:49:27.742Z,9.03
2018-07-31T09:51:29.930Z,9.20
2018-07-31T09:53:32.118Z,9.00
2018-07-31T09:55:34.269Z,9.67
2018-07-31T09:57:36.463Z,9.00
2018-07-31T09:59:38.636Z,8.53
2018-07-31T10:01:40.768Z,10.43
2018-07-31T10:03:42.912Z,8.57
2018-07-31T10:05:45.229Z,9.40
2018-07-31T10:07:47.403Z,9.07
2018-07-31T10:09:49.612Z,9.80
2018-07-31T10:11:52.272Z,8.80
2018-07-31T10:13:54.307Z,9.30
2018-07-31T10:15:56.511Z,8.70
2018-07-31T10:17:58.856Z,8.70
2018-07-31T10:20:07.814Z,9.17
2018-07-31T10:22:10.002Z,8.53
2018-07-31T10:24:12.209Z,9.40
2018-07-31T10:26:14.286Z,9.13
2018-07-31T10:28:16.487Z,8.90
2018-07-31T10:30:18.680Z,9.03
2018-07-31T10:32:20.835Z,9.50
2018-07-31T10:34:23.003Z,8.90
2018-07-31T10:36:25.178Z,9.03
2018-07-31T10:38:27.332Z,8.57
2018-07-31T10:40:29.465Z,10.10
2018-07-31T10:42:31.652Z,8.97
2018-07-31T10:44:33.851Z,9.20
2018-07-31T10:46:36.018Z,9.53
2018-07-31T10:48:38.150Z,8.90
2018-07-31T10:50:40.408Z,8.97
2018-07-31T10:52:42.473Z,8.27
2018-07-31T10:54:44.698Z,9.20
2018-07-31T10:56:46.864Z,8.97
2018-07-31T10:58:49.016Z,8.13
2018-07-31T11:00:51.173Z,8.37
2018-07-31T11:02:53.411Z,8.00
2018-07-31T11:04:55.582Z,8.27
2018-07-31T11:06:57.732Z,8.13
2018-07-31T11:08:59.920Z,9.00
2018-07-31T11:11:02.111Z,7.63
2018-07-31T11:13:04.319Z,8.20
2018-07-31T11:15:06.498Z,8.73
2018-07-31T11:17:08.639Z,8.37
2018-07-31T11:19:10.782Z,8.17
2018-07-31T11:21:12.983Z,8.67
2018-07-31T11:23:15.171Z,8.10
2018-07-31T11:25:17.396Z,8.10
2018-07-31T11:27:19.558Z,9.33
2018-07-31T11:29:21.722Z,9.10
2018-07-31T11:31:23.939Z,9.07
2018-07-31T11:33:26.130Z,9.20
2018-07-31T11:35:28.285Z,8.97
2018-07-31T11:37:30.463Z,9.07
2018-07-31T11:39:32.675Z,9.27
2018-07-31T11:41:35.051Z,9.20
2018-07-31T11:43:37.204Z,9.30
2018-07-31T11:45:39.399Z,9.77
2018-07-31T11:47:42.506Z,9.30
2018-07-31T11:49:44.700Z,9.43
2018-07-31T11:51:46.918Z,9.10
2018-07-31T11:53:49.126Z,9.27
2018-07-31T11:55:51.265Z,10.00
2018-07-31T11:57:53.444Z,9.67
2018-07-31T11:59:56.774Z,8.90
2018-07-31T12:01:59.307Z,8.90
2018-07-31T12:04:02.523Z,9.20
2018-07-31T12:06:04.775Z,9.50
2018-07-31T12:08:06.947Z,8.77
2018-07-31T12:10:09.122Z,9.70
2018-07-31T12:12:11.387Z,9.33
2018-07-31T12:14:14.233Z,10.00
2018-07-31T12:16:16.396Z,9.60
2018-07-31T12:18:18.541Z,9.93
2018-07-31T12:20:20.698Z,9.50
2018-07-31T12:22:22.818Z,9.13
2018-07-31T12:24:24.958Z,9.90
2018-07-31T12:26:27.118Z,8.97
2018-07-31T12:28:29.311Z,9.70
2018-07-31T12:30:31.471Z,9.27
2018-07-31T12:32:33.597Z,9.97
2018-07-31T12:34:35.836Z,9.13
2018-07-31T12:36:38.043Z,8.90
2018-07-31T12:38:40.285Z,8.37
2018-07-31T12:40:42.529Z,8.23
2018-07-31T12:42:44.677Z,8.00
2018-07-31T12:44:46.778Z,8.70
2018-07-31T12:46:48.906Z,8.60
2018-07-31T12:48:51.085Z,8.90
2018-07-31T12:50:53.255Z,7.93
2018-07-31T12:52:55.479Z,8.43
2018-07-31T12:54:57.694Z,7.50
2018-07-31T12:56:59.911Z,8.40
2018-07-31T12:59:02.058Z,7.57
2018-07-31T13:01:04.227Z,8.10
2018-07-31T13:03:06.391Z,8.00
2018-07-31T13:05:08.530Z,8.30
2018-07-31T13:07:10.783Z,8.23
2018-07-31T13:09:12.931Z,8.37
2018-07-31T13:11:15.054Z,8.33
2018-07-31T13:13:17.255Z,7.30
2018-07-31T13:15:19.411Z,8.30
2018-07-31T13:17:21.622Z,8.50
2018-07-31T13:19:23.990Z,8.30
2018-07-31T13:21:26.244Z,7.37
2018-07-31T13:23:28.346Z,7.93
2018-07-31T13:25:31.426Z,8.67
2018-07-31T13:27:33.613Z,7.93
2018-07-31T13:29:35.793Z,8.83
2018-07-31T13:31:38.007Z,8.27
2018-07-31T13:33:40.156Z,7.80
2018-07-31T13:35:43.346Z,7.90
2018-07-31T13:37:45.518Z,8.30
2018-07-31T13:39:47.682Z,9.37
2018-07-31T13:41:49.838Z,8.50
2018-07-31T13:43:52.166Z,8.60
2018-07-31T13:45:54.310Z,7.60
2018-07-31T13:47:56.466Z,8.07
2018-07-31T13:49:58.648Z,8.10
2018-07-31T13:52:00.820Z,7.60
2018-07-31T13:54:03.026Z,8.70
2018-07-31T13:56:05.614Z,8.17
2018-07-31T13:58:07.798Z,8.53
2018-07-31T14:00:10.054Z,8.40
2018-07-31T14:02:12.215Z,8.53
2018-07-31T14:04:14.727Z,8.60
2018-07-31T14:06:16.827Z,8.30
2018-07-31T14:08:19.010Z,8.43
2018-07-31T14:10:21.309Z,9.03
2018-07-31T14:12:23.518Z,8.67
2018-07-31T14:14:25.685Z,8.90
2018-07-31T14:16:27.832Z,8.63
2018-07-31T14:18:29.965Z,8.47
2018-07-31T14:20:32.191Z,9.07
2018-07-31T14:22:34.355Z,8.00
2018-07-31T14:24:36.681Z,9.10
2018-07-31T14:26:40.165Z,9.55
2018-07-31T14:28:42.407Z,8.78
2018-07-31T14:30:44.662Z,8.50
2018-07-31T14:32:46.855Z,7.58
2018-07-31T14:34:49.046Z,8.00
2018-07-31T14:36:51.245Z,8.20
2018-07-31T14:38:53.536Z,8.48
2018-07-31T14:40:55.780Z,8.38
2018-07-31T14:42:58.010Z,7.50
2018-07-31T14:45:00.440Z,6.80
2018-07-31T14:47:02.932Z,7.45
2018-07-31T14:49:05.162Z,8.35
2018-07-31T14:51:07.372Z,7.33
2018-07-31T14:53:10.499Z,7.67
2018-07-31T14:55:12.695Z,8.45
2018-07-31T14:57:15.111Z,7.78
2018-07-31T14:59:18.227Z,7.80
2018-07-31T15:01:20.933Z,7.78
2018-07-31T15:03:23.441Z,7.70
2018-07-31T15:05:25.630Z,7.92
2018-07-31T15:07:27.805Z,8.25
2018-07-31T15:09:29.953Z,8.93
2018-07-31T15:11:32.240Z,8.57
2018-07-31T15:13:34.450Z,7.40
2018-07-31T15:15:36.670Z,8.03
2018-07-31T15:17:38.903Z,8.37
2018-07-31T15:19:41.147Z,8.30
2018-07-31T15:21:43.491Z,8.20
2018-07-31T15:23:45.697Z,8.17
2018-07-31T15:25:47.920Z,7.50
2018-07-31T15:27:50.211Z,8.20
2018-07-31T15:29:52.496Z,7.80
2018-07-31T15:31:54.768Z,8.57
2018-07-31T15:33:57.051Z,7.33
2018-07-31T15:35:59.243Z,7.93
2018-07-31T15:38:01.499Z,7.90
2018-07-31T15:40:04.218Z,8.30
2018-07-31T15:42:06.422Z,7.70
2018-07-31T15:44:09.084Z,8.00
2018-07-31T15:46:11.345Z,7.73
2018-07-31T15:48:13.591Z,8.50
2018-07-31T15:50:15.744Z,7.00
2018-07-31T15:52:17.959Z,6.43
2018-07-31T15:54:20.240Z,6.63
2018-07-31T15:56:22.580Z,7.20
2018-07-31T15:58:24.910Z,7.10
2018-07-31T16:00:27.139Z,7.50
2018-07-31T16:02:29.347Z,7.00
2018-07-31T16:04:31.598Z,8.43
2018-07-31T16:06:33.844Z,7.70
2018-07-31T16:08:36.125Z,7.67
2018-07-31T16:10:38.313Z,9.93
2018-07-31T16:12:41.693Z,7.93
2018-07-31T16:14:43.883Z,8.00
2018-07-31T16:16:46.140Z,7.73
2018-07-31T16:18:48.351Z,9.60
2018-07-31T16:20:50.576Z,8.27
2018-07-31T16:22:52.810Z,7.40
2018-07-31T16:24:55.208Z,7.60
2018-07-31T16:26:57.429Z,7.50
2018-07-31T16:28:59.708Z,7.83
2018-07-31T16:31:01.938Z,7.90
2018-07-31T16:33:04.147Z,8.20
2018-07-31T16:35:06.344Z,7.40
2018-07-31T16:37:08.595Z,8.13
2018-07-31T16:39:11.778Z,7.50
2018-07-31T16:41:14.079Z,7.33
2018-07-31T16:43:16.266Z,6.70
2018-07-31T16:45:18.539Z,6.70
2018-07-31T16:47:20.791Z,17.27
2018-07-31T16:49:23.060Z,7.10
2018-07-31T16:51:25.336Z,7.20
2018-07-31T16:53:27.489Z,6.00
2018-07-31T16:55:29.731Z,5.63
2018-07-31T16:57:32.099Z,5.97
2018-07-31T16:59:34.309Z,5.70
2018-07-31T17:01:36.556Z,5.90
2018-07-31T17:03:39.050Z,5.50
2018-07-31T17:05:41.242Z,4.93
2018-07-31T17:07:43.557Z,5.00
2018-07-31T17:09:45.738Z,4.90
2018-07-31T17:11:47.902Z,4.80
2018-07-31T17:13:50.087Z,4.80
2018-07-31T17:15:52.274Z,5.27
2018-07-31T17:17:54.466Z,5.30
2018-07-31T17:19:56.599Z,4.93
2018-07-31T17:21:58.757Z,4.70
2018-07-31T17:24:00.879Z,4.87
2018-07-31T17:26:03.015Z,5.13
2018-07-31T17:28:05.491Z,5.33
2018-07-31T17:30:07.611Z,5.03
2018-07-31T17:32:09.940Z,4.70
2018-07-31T17:34:12.104Z,4.87
2018-07-31T17:36:14.367Z,4.93
2018-07-31T17:38:16.510Z,4.53
2018-07-31T17:40:18.836Z,4.23
2018-07-31T17:42:21.071Z,5.17
2018-07-31T17:44:23.315Z,4.43
2018-07-31T17:46:25.377Z,5.60
2018-07-31T17:48:27.661Z,5.23
2018-07-31T17:50:29.943Z,4.57
2018-07-31T17:52:32.167Z,5.20
2018-07-31T17:54:34.390Z,4.60
2018-07-31T17:56:36.623Z,4.30
2018-07-31T17:58:38.871Z,4.90
2018-07-31T18:00:41.995Z,4.73
2018-07-31T18:02:44.215Z,4.30
2018-07-31T18:04:46.423Z,4.83
2018-07-31T18:06:48.783Z,4.20
2018-07-31T18:08:51.006Z,4.50
2018-07-31T18:10:53.221Z,5.10
2018-07-31T18:12:55.489Z,4.50
2018-07-31T18:14:57.784Z,4.93
2018-07-31T18:17:00.742Z,4.30
2018-07-31T18:19:03.097Z,4.30
2018-07-31T18:21:05.778Z,4.70
2018-07-31T18:23:08.050Z,4.30
2018-07-31T18:25:10.240Z,4.33
2018-07-31T18:27:12.544Z,3.80
2018-07-31T18:29:14.793Z,3.77
2018-07-31T18:31:16.918Z,3.70
2018-07-31T18:33:19.183Z,3.87
2018-07-31T18:35:21.423Z,3.73
2018-07-31T18:37:24.284Z,4.00
2018-07-31T18:39:27.492Z,3.80
2018-07-31T18:41:29.614Z,4.17
2018-07-31T18:43:31.750Z,4.10
2018-07-31T18:45:33.897Z,6.77
2018-07-31T18:47:35.993Z,5.33
2018-07-31T18:49:38.150Z,3.53
2018-07-31T18:51:40.262Z,4.00
2018-07-31T18:53:42.761Z,3.80
2018-07-31T18:55:44.953Z,3.50
2018-07-31T18:57:47.122Z,3.97
2018-07-31T18:59:49.227Z,4.43
2018-07-31T19:01:51.992Z,3.37
2018-07-31T19:03:54.699Z,3.60
2018-07-31T19:05:57.366Z,3.23
2018-07-31T19:08:00.230Z,3.73
2018-07-31T19:10:02.615Z,5.30
2018-07-31T19:12:04.869Z,3.30
2018-07-31T19:14:07.036Z,4.00
2018-07-31T19:16:09.211Z,3.80
2018-07-31T19:18:11.378Z,3.53
2018-07-31T19:20:13.529Z,3.50
2018-07-31T19:22:15.626Z,3.53
2018-07-31T19:24:17.745Z,3.60
2018-07-31T19:26:19.835Z,3.80
2018-07-31T19:28:21.907Z,3.30
2018-07-31T19:30:24.913Z,3.70
2018-07-31T19:32:27.022Z,3.43
2018-07-31T19:34:29.112Z,3.20
2018-07-31T19:36:31.333Z,3.50
2018-07-31T19:38:33.482Z,3.70
2018-07-31T19:40:35.632Z,5.13
2018-07-31T19:42:37.893Z,3.87
2018-07-31T19:44:39.986Z,3.70
2018-07-31T19:46:42.232Z,5.67
2018-07-31T19:48:44.400Z,3.40
2018-07-31T19:50:46.513Z,3.50
2018-07-31T19:52:48.626Z,4.37
2018-07-31T19:54:50.753Z,3.83
2018-07-31T19:56:52.975Z,3.30
2018-07-31T19:58:55.086Z,4.17
2018-07-31T20:00:57.238Z,4.00
2018-07-31T20:05:08.266Z,5.23
2018-07-31T20:07:10.422Z,4.27
2018-07-31T20:09:17.185Z,3.77
2018-07-31T20:11:19.301Z,3.70
2018-07-31T20:13:21.454Z,3.70
2018-07-31T20:15:23.607Z,3.40
2018-07-31T20:17:25.705Z,3.10
2018-07-31T20:19:27.858Z,3.77
2018-07-31T20:21:30.083Z,3.07
2018-07-31T20:23:32.304Z,3.40
2018-07-31T20:25:34.422Z,3.20
2018-07-31T20:27:36.577Z,3.60
2018-07-31T20:29:38.737Z,3.90
2018-07-31T20:31:40.914Z,3.90
2018-07-31T20:33:43.037Z,3.20
2018-07-31T20:35:45.194Z,3.70
2018-07-31T20:37:47.289Z,3.20
2018-07-31T20:39:49.414Z,3.40
2018-07-31T20:41:51.510Z,3.93
2018-07-31T20:43:53.610Z,3.43
2018-07-31T20:45:55.874Z,3.90
2018-07-31T20:47:58.152Z,3.67
2018-07-31T20:50:00.330Z,3.47
2018-07-31T20:52:02.482Z,4.10
2018-07-31T20:54:04.745Z,3.47
2018-07-31T20:56:06.855Z,3.60
2018-07-31T20:58:08.958Z,4.17
2018-07-31T21:00:11.053Z,4.87
2018-07-31T21:02:13.157Z,4.53
2018-07-31T21:04:15.286Z,5.93
2018-07-31T21:06:17.532Z,4.00
2018-07-31T21:08:19.726Z,3.43
2018-07-31T21:10:21.821Z,3.93
2018-07-31T21:12:23.945Z,3.60
2018-07-31T21:14:26.077Z,3.93
2018-07-31T21:16:28.427Z,4.00
2018-07-31T21:18:30.539Z,4.20
2018-07-31T21:20:32.625Z,3.90
2018-07-31T21:22:35.701Z,3.60
2018-07-31T21:24:37.798Z,4.07
2018-07-31T21:26:39.884Z,3.30
2018-07-31T21:28:41.982Z,3.50
2018-07-31T21:30:44.110Z,4.00
2018-07-31T21:32:46.198Z,4.10
2018-07-31T21:34:48.590Z,4.60
2018-07-31T21:36:50.754Z,4.37
2018-07-31T21:38:52.869Z,3.50
2018-07-31T21:40:54.989Z,3.73
2018-07-31T21:42:57.102Z,3.57
2018-07-31T21:44:59.218Z,5.00
2018-07-31T21:47:01.366Z,3.67
2018-07-31T21:49:03.537Z,4.13
2018-07-31T21:51:05.662Z,4.00
2018-07-31T21:53:07.816Z,4.17
2018-07-31T21:55:09.928Z,3.60
2018-07-31T21:57:12.046Z,4.20
2018-07-31T21:59:14.155Z,3.90
2018-07-31T22:01:16.269Z,3.87
2018-07-31T22:03:18.370Z,4.53
2018-07-31T22:05:20.481Z,4.63
2018-07-31T22:07:22.616Z,3.83
2018-07-31T22:09:30.244Z,6.03
2018-07-31T22:11:32.322Z,4.17
2018-07-31T22:13:34.553Z,3.67
2018-07-31T22:15:36.642Z,4.03
2018-07-31T22:17:38.773Z,3.97
2018-07-31T22:19:41.190Z,3.93
2018-07-31T22:21:43.338Z,4.07
2018-07-31T22:23:45.434Z,4.30
2018-07-31T22:25:47.801Z,4.60
2018-07-31T22:27:49.904Z,3.80
2018-07-31T22:29:52.002Z,4.40
2018-07-31T22:31:54.130Z,4.60
2018-07-31T22:33:56.246Z,4.53
2018-07-31T22:35:58.710Z,4.80
2018-07-31T22:38:00.822Z,5.00
2018-07-31T22:40:02.974Z,4.90
2018-07-31T22:42:05.253Z,4.60
2018-07-31T22:44:07.338Z,4.77
2018-07-31T22:46:09.458Z,4.20
2018-07-31T22:48:11.618Z,4.83
2018-07-31T22:50:13.712Z,5.37
2018-07-31T22:52:15.925Z,4.70
2018-07-31T22:54:18.031Z,5.27
2018-07-31T22:56:20.186Z,4.63
2018-07-31T22:58:22.373Z,4.60
2018-07-31T23:00:24.489Z,4.90
2018-07-31T23:02:26.612Z,4.70
2018-07-31T23:04:28.705Z,4.90
2018-07-31T23:06:30.830Z,4.80
2018-07-31T23:08:32.990Z,4.07
2018-07-31T23:10:35.110Z,4.83
2018-07-31T23:12:37.243Z,4.33
2018-07-31T23:14:39.363Z,4.40
2018-07-31T23:18:50.327Z,4.20
2018-07-31T23:20:52.509Z,4.60
2018-07-31T23:22:54.531Z,4.30
2018-07-31T23:24:56.644Z,5.27
2018-07-31T23:26:58.939Z,4.27
2018-07-31T23:29:01.069Z,4.60
2018-07-31T23:31:03.186Z,4.77
2018-07-31T23:33:05.292Z,5.00
2018-07-31T23:35:07.497Z,4.33
2018-07-31T23:37:09.615Z,5.23
2018-07-31T23:39:11.781Z,4.10
2018-07-31T23:41:13.877Z,4.40
2018-07-31T23:43:15.957Z,4.50
2018-07-31T23:45:18.312Z,4.30
2018-07-31T23:47:20.414Z,4.83
2018-07-31T23:49:22.485Z,4.30
2018-07-31T23:51:24.603Z,4.50
2018-07-31T23:53:26.723Z,4.47
2018-07-31T23:55:28.830Z,3.80
2018-07-31T23:57:30.985Z,4.40
2018-07-31T23:59:33.114Z,4.80
